sensor_id;sensor_type;location;lat;lon;timestamp;P1;durP1;ratioP1;P2;durP2;ratioP2
68178;SDS011;69812;42.632;23.440;2023-06-26T00:00:41;32.55;;;16.85;;
68178;SDS011;69812;42.632;23.440;2023-06-26T00:03:06;28.45;;;15.60;;
68178;SDS011;69812;42.632;23.440;2023-06-26T00:05:34;26.95;;;15.93;;
68178;SDS011;69812;42.632;23.440;2023-06-26T00:08:00;28.77;;;16.63;;
68178;SDS011;69812;42.632;23.440;2023-06-26T00:10:28;29.52;;;16.70;;
68178;SDS011;69812;42.632;23.440;2023-06-26T00:12:54;26.42;;;16.15;;
68178;SDS011;69812;42.632;23.440;2023-06-26T00:15:19;26.65;;;15.65;;
68178;SDS011;69812;42.632;23.440;2023-06-26T00:17:47;27.05;;;16.65;;
68178;SDS011;69812;42.632;23.440;2023-06-26T00:20:12;25.88;;;15.00;;
68178;SDS011;69812;42.632;23.440;2023-06-26T00:22:44;27.88;;;16.40;;
68178;SDS011;69812;42.632;23.440;2023-06-26T00:25:10;28.35;;;15.40;;
68178;SDS011;69812;42.632;23.440;2023-06-26T00:27:37;27.67;;;16.83;;
68178;SDS011;69812;42.632;23.440;2023-06-26T00:30:05;24.20;;;15.20;;
68178;SDS011;69812;42.632;23.440;2023-06-26T00:32:31;26.52;;;14.63;;
68178;SDS011;69812;42.632;23.440;2023-06-26T00:34:56;24.90;;;15.13;;
68178;SDS011;69812;42.632;23.440;2023-06-26T00:37:27;24.55;;;14.98;;
68178;SDS011;69812;42.632;23.440;2023-06-26T00:39:52;24.48;;;14.73;;
68178;SDS011;69812;42.632;23.440;2023-06-26T00:42:17;25.33;;;14.90;;
68178;SDS011;69812;42.632;23.440;2023-06-26T00:44:43;24.42;;;14.93;;
68178;SDS011;69812;42.632;23.440;2023-06-26T00:47:09;24.77;;;14.65;;
68178;SDS011;69812;42.632;23.440;2023-06-26T00:49:38;25.02;;;14.07;;
68178;SDS011;69812;42.632;23.440;2023-06-26T00:52:05;24.95;;;14.73;;
68178;SDS011;69812;42.632;23.440;2023-06-26T00:54:31;22.52;;;14.18;;
68178;SDS011;69812;42.632;23.440;2023-06-26T00:56:59;23.17;;;14.35;;
68178;SDS011;69812;42.632;23.440;2023-06-26T00:59:24;23.13;;;14.05;;
68178;SDS011;69812;42.632;23.440;2023-06-26T01:01:50;21.70;;;14.07;;
68178;SDS011;69812;42.632;23.440;2023-06-26T01:04:15;20.23;;;13.73;;
68178;SDS011;69812;42.632;23.440;2023-06-26T01:06:46;20.40;;;13.02;;
68178;SDS011;69812;42.632;23.440;2023-06-26T01:09:20;20.98;;;13.23;;
68178;SDS011;69812;42.632;23.440;2023-06-26T01:11:46;24.40;;;13.43;;
68178;SDS011;69812;42.632;23.440;2023-06-26T01:14:14;22.48;;;12.90;;
68178;SDS011;69812;42.632;23.440;2023-06-26T01:16:39;21.25;;;14.02;;
68178;SDS011;69812;42.632;23.440;2023-06-26T01:19:09;19.48;;;12.35;;
68178;SDS011;69812;42.632;23.440;2023-06-26T01:21:40;20.40;;;13.40;;
68178;SDS011;69812;42.632;23.440;2023-06-26T01:24:17;18.70;;;12.15;;
68178;SDS011;69812;42.632;23.440;2023-06-26T01:26:49;20.60;;;12.75;;
68178;SDS011;69812;42.632;23.440;2023-06-26T01:29:16;19.17;;;12.40;;
68178;SDS011;69812;42.632;23.440;2023-06-26T01:31:43;17.60;;;11.93;;
68178;SDS011;69812;42.632;23.440;2023-06-26T01:34:12;19.70;;;12.30;;
68178;SDS011;69812;42.632;23.440;2023-06-26T01:36:39;20.23;;;12.85;;
68178;SDS011;69812;42.632;23.440;2023-06-26T01:39:04;17.70;;;12.73;;
68178;SDS011;69812;42.632;23.440;2023-06-26T01:41:29;18.77;;;13.32;;
68178;SDS011;69812;42.632;23.440;2023-06-26T01:49:03;22.05;;;12.75;;
68178;SDS011;69812;42.632;23.440;2023-06-26T01:51:38;17.33;;;12.02;;
68178;SDS011;69812;42.632;23.440;2023-06-26T01:54:11;21.08;;;13.95;;
68178;SDS011;69812;42.632;23.440;2023-06-26T01:56:42;23.40;;;13.52;;
68178;SDS011;69812;42.632;23.440;2023-06-26T01:59:12;20.63;;;12.38;;
68178;SDS011;69812;42.632;23.440;2023-06-26T02:01:40;20.17;;;13.38;;
68178;SDS011;69812;42.632;23.440;2023-06-26T02:04:05;20.25;;;13.13;;
68178;SDS011;69812;42.632;23.440;2023-06-26T02:06:31;21.52;;;12.95;;
68178;SDS011;69812;42.632;23.440;2023-06-26T02:08:56;21.88;;;13.35;;
68178;SDS011;69812;42.632;23.440;2023-06-26T02:11:22;22.40;;;13.52;;
68178;SDS011;69812;42.632;23.440;2023-06-26T02:13:48;20.83;;;12.77;;
68178;SDS011;69812;42.632;23.440;2023-06-26T02:16:13;21.40;;;14.73;;
68178;SDS011;69812;42.632;23.440;2023-06-26T02:18:41;23.33;;;13.98;;
68178;SDS011;69812;42.632;23.440;2023-06-26T02:21:06;20.38;;;12.65;;
68178;SDS011;69812;42.632;23.440;2023-06-26T02:23:32;21.58;;;13.63;;
68178;SDS011;69812;42.632;23.440;2023-06-26T02:25:57;21.13;;;13.07;;
68178;SDS011;69812;42.632;23.440;2023-06-26T02:28:23;22.05;;;14.32;;
68178;SDS011;69812;42.632;23.440;2023-06-26T02:30:48;24.00;;;14.43;;
68178;SDS011;69812;42.632;23.440;2023-06-26T02:33:14;23.33;;;13.82;;
68178;SDS011;69812;42.632;23.440;2023-06-26T02:35:44;20.45;;;13.75;;
68178;SDS011;69812;42.632;23.440;2023-06-26T02:38:10;23.15;;;13.30;;
68178;SDS011;69812;42.632;23.440;2023-06-26T02:40:35;19.45;;;12.77;;
68178;SDS011;69812;42.632;23.440;2023-06-26T02:43:03;18.35;;;12.13;;
68178;SDS011;69812;42.632;23.440;2023-06-26T02:45:32;19.90;;;13.65;;
68178;SDS011;69812;42.632;23.440;2023-06-26T02:47:57;21.75;;;13.35;;
68178;SDS011;69812;42.632;23.440;2023-06-26T02:50:25;22.52;;;14.48;;
68178;SDS011;69812;42.632;23.440;2023-06-26T02:52:53;19.10;;;13.95;;
68178;SDS011;69812;42.632;23.440;2023-06-26T02:55:28;21.23;;;14.60;;
68178;SDS011;69812;42.632;23.440;2023-06-26T02:57:53;24.17;;;15.95;;
68178;SDS011;69812;42.632;23.440;2023-06-26T03:00:19;22.80;;;14.75;;
68178;SDS011;69812;42.632;23.440;2023-06-26T03:02:44;25.95;;;16.17;;
68178;SDS011;69812;42.632;23.440;2023-06-26T03:05:10;22.65;;;14.38;;
68178;SDS011;69812;42.632;23.440;2023-06-26T03:07:40;21.20;;;14.85;;
68178;SDS011;69812;42.632;23.440;2023-06-26T03:10:06;22.83;;;15.23;;
68178;SDS011;69812;42.632;23.440;2023-06-26T03:12:34;24.02;;;14.90;;
68178;SDS011;69812;42.632;23.440;2023-06-26T03:15:02;21.42;;;15.30;;
68178;SDS011;69812;42.632;23.440;2023-06-26T03:17:30;21.80;;;15.48;;
68178;SDS011;69812;42.632;23.440;2023-06-26T03:19:55;21.73;;;15.48;;
68178;SDS011;69812;42.632;23.440;2023-06-26T03:22:21;24.35;;;15.93;;
68178;SDS011;69812;42.632;23.440;2023-06-26T03:24:46;22.77;;;16.50;;
68178;SDS011;69812;42.632;23.440;2023-06-26T03:27:14;25.58;;;16.08;;
68178;SDS011;69812;42.632;23.440;2023-06-26T03:29:39;25.60;;;15.70;;
68178;SDS011;69812;42.632;23.440;2023-06-26T03:32:10;24.92;;;15.63;;
68178;SDS011;69812;42.632;23.440;2023-06-26T03:34:38;22.60;;;15.48;;
68178;SDS011;69812;42.632;23.440;2023-06-26T03:37:05;23.27;;;15.88;;
68178;SDS011;69812;42.632;23.440;2023-06-26T03:39:31;22.80;;;15.50;;
68178;SDS011;69812;42.632;23.440;2023-06-26T03:42:01;21.95;;;14.68;;
68178;SDS011;69812;42.632;23.440;2023-06-26T03:44:27;21.70;;;15.43;;
68178;SDS011;69812;42.632;23.440;2023-06-26T03:46:52;21.83;;;15.23;;
68178;SDS011;69812;42.632;23.440;2023-06-26T03:49:18;20.48;;;14.85;;
68178;SDS011;69812;42.632;23.440;2023-06-26T03:51:44;20.65;;;14.45;;
68178;SDS011;69812;42.632;23.440;2023-06-26T03:54:12;21.25;;;16.30;;
68178;SDS011;69812;42.632;23.440;2023-06-26T03:56:37;19.33;;;15.15;;
68178;SDS011;69812;42.632;23.440;2023-06-26T03:59:03;22.25;;;15.07;;
68178;SDS011;69812;42.632;23.440;2023-06-26T04:01:28;22.40;;;14.40;;
68178;SDS011;69812;42.632;23.440;2023-06-26T04:03:58;20.95;;;15.20;;
68178;SDS011;69812;42.632;23.440;2023-06-26T04:06:30;22.05;;;15.40;;
68178;SDS011;69812;42.632;23.440;2023-06-26T04:08:58;22.50;;;15.32;;
68178;SDS011;69812;42.632;23.440;2023-06-26T04:11:24;21.40;;;14.77;;
68178;SDS011;69812;42.632;23.440;2023-06-26T04:13:54;21.33;;;15.40;;
68178;SDS011;69812;42.632;23.440;2023-06-26T04:16:20;20.88;;;14.45;;
68178;SDS011;69812;42.632;23.440;2023-06-26T04:18:46;20.42;;;14.75;;
68178;SDS011;69812;42.632;23.440;2023-06-26T04:21:12;20.15;;;14.77;;
68178;SDS011;69812;42.632;23.440;2023-06-26T04:23:50;22.70;;;14.20;;
68178;SDS011;69812;42.632;23.440;2023-06-26T04:26:16;20.63;;;14.73;;
68178;SDS011;69812;42.632;23.440;2023-06-26T04:28:41;23.73;;;14.80;;
68178;SDS011;69812;42.632;23.440;2023-06-26T04:31:07;18.42;;;13.40;;
68178;SDS011;69812;42.632;23.440;2023-06-26T04:33:33;20.38;;;13.98;;
68178;SDS011;69812;42.632;23.440;2023-06-26T04:36:01;18.85;;;14.07;;
68178;SDS011;69812;42.632;23.440;2023-06-26T04:38:29;20.05;;;13.23;;
68178;SDS011;69812;42.632;23.440;2023-06-26T04:40:56;18.50;;;13.73;;
68178;SDS011;69812;42.632;23.440;2023-06-26T04:43:21;20.20;;;14.70;;
68178;SDS011;69812;42.632;23.440;2023-06-26T04:45:46;21.40;;;14.30;;
68178;SDS011;69812;42.632;23.440;2023-06-26T04:48:12;20.88;;;14.88;;
68178;SDS011;69812;42.632;23.440;2023-06-26T04:50:38;17.40;;;12.90;;
68178;SDS011;69812;42.632;23.440;2023-06-26T04:53:06;17.65;;;14.07;;
68178;SDS011;69812;42.632;23.440;2023-06-26T04:55:32;18.30;;;14.15;;
68178;SDS011;69812;42.632;23.440;2023-06-26T04:57:57;22.48;;;14.25;;
68178;SDS011;69812;42.632;23.440;2023-06-26T05:00:25;18.92;;;14.25;;
68178;SDS011;69812;42.632;23.440;2023-06-26T05:02:51;18.02;;;13.60;;
68178;SDS011;69812;42.632;23.440;2023-06-26T05:05:34;21.67;;;14.70;;
68178;SDS011;69812;42.632;23.440;2023-06-26T05:08:12;19.35;;;12.68;;
68178;SDS011;69812;42.632;23.440;2023-06-26T05:10:38;18.65;;;13.63;;
68178;SDS011;69812;42.632;23.440;2023-06-26T05:13:04;17.98;;;13.98;;
68178;SDS011;69812;42.632;23.440;2023-06-26T05:15:29;20.35;;;13.77;;
68178;SDS011;69812;42.632;23.440;2023-06-26T05:17:54;18.55;;;14.00;;
68178;SDS011;69812;42.632;23.440;2023-06-26T05:20:20;16.20;;;13.05;;
68178;SDS011;69812;42.632;23.440;2023-06-26T05:22:45;19.23;;;14.20;;
68178;SDS011;69812;42.632;23.440;2023-06-26T05:25:11;17.98;;;13.63;;
68178;SDS011;69812;42.632;23.440;2023-06-26T05:30:03;19.55;;;14.27;;
68178;SDS011;69812;42.632;23.440;2023-06-26T05:32:31;21.45;;;14.02;;
68178;SDS011;69812;42.632;23.440;2023-06-26T05:35:00;19.10;;;14.18;;
68178;SDS011;69812;42.632;23.440;2023-06-26T05:37:28;21.83;;;14.13;;
68178;SDS011;69812;42.632;23.440;2023-06-26T05:39:55;17.92;;;13.35;;
68178;SDS011;69812;42.632;23.440;2023-06-26T05:42:21;23.23;;;15.15;;
68178;SDS011;69812;42.632;23.440;2023-06-26T05:44:49;22.17;;;14.45;;
68178;SDS011;69812;42.632;23.440;2023-06-26T05:47:15;18.05;;;13.48;;
68178;SDS011;69812;42.632;23.440;2023-06-26T05:49:40;17.92;;;13.73;;
68178;SDS011;69812;42.632;23.440;2023-06-26T05:52:06;15.48;;;12.15;;
68178;SDS011;69812;42.632;23.440;2023-06-26T05:54:32;18.23;;;13.38;;
68178;SDS011;69812;42.632;23.440;2023-06-26T05:56:58;17.35;;;13.20;;
68178;SDS011;69812;42.632;23.440;2023-06-26T05:59:24;19.75;;;14.10;;
68178;SDS011;69812;42.632;23.440;2023-06-26T06:01:51;22.00;;;14.02;;
68178;SDS011;69812;42.632;23.440;2023-06-26T06:04:17;17.42;;;12.98;;
68178;SDS011;69812;42.632;23.440;2023-06-26T06:06:45;19.67;;;13.13;;
68178;SDS011;69812;42.632;23.440;2023-06-26T06:09:10;17.60;;;13.75;;
68178;SDS011;69812;42.632;23.440;2023-06-26T06:11:35;16.92;;;12.45;;
68178;SDS011;69812;42.632;23.440;2023-06-26T06:14:02;18.23;;;12.77;;
68178;SDS011;69812;42.632;23.440;2023-06-26T06:16:27;17.55;;;12.30;;
68178;SDS011;69812;42.632;23.440;2023-06-26T06:18:54;19.50;;;12.20;;
68178;SDS011;69812;42.632;23.440;2023-06-26T06:21:19;17.27;;;12.25;;
68178;SDS011;69812;42.632;23.440;2023-06-26T06:23:45;15.32;;;11.75;;
68178;SDS011;69812;42.632;23.440;2023-06-26T06:26:13;15.73;;;11.52;;
68178;SDS011;69812;42.632;23.440;2023-06-26T06:28:38;16.42;;;11.23;;
68178;SDS011;69812;42.632;23.440;2023-06-26T06:31:04;15.52;;;11.48;;
68178;SDS011;69812;42.632;23.440;2023-06-26T06:33:30;13.82;;;12.00;;
68178;SDS011;69812;42.632;23.440;2023-06-26T06:35:55;14.00;;;11.50;;
68178;SDS011;69812;42.632;23.440;2023-06-26T06:38:20;14.27;;;11.15;;
68178;SDS011;69812;42.632;23.440;2023-06-26T06:40:46;14.00;;;11.13;;
68178;SDS011;69812;42.632;23.440;2023-06-26T06:43:11;15.48;;;10.18;;
68178;SDS011;69812;42.632;23.440;2023-06-26T06:45:36;13.77;;;10.45;;
68178;SDS011;69812;42.632;23.440;2023-06-26T06:48:03;12.00;;;10.18;;
68178;SDS011;69812;42.632;23.440;2023-06-26T06:52:54;15.13;;;11.88;;
68178;SDS011;69812;42.632;23.440;2023-06-26T06:55:19;11.85;;;10.60;;
68178;SDS011;69812;42.632;23.440;2023-06-26T06:57:45;12.50;;;11.20;;
68178;SDS011;69812;42.632;23.440;2023-06-26T07:00:11;11.70;;;10.30;;
68178;SDS011;69812;42.632;23.440;2023-06-26T07:02:39;12.48;;;10.15;;
68178;SDS011;69812;42.632;23.440;2023-06-26T07:05:07;12.23;;;10.20;;
68178;SDS011;69812;42.632;23.440;2023-06-26T07:07:33;13.23;;;10.30;;
68178;SDS011;69812;42.632;23.440;2023-06-26T07:10:06;12.90;;;10.05;;
68178;SDS011;69812;42.632;23.440;2023-06-26T07:12:33;13.13;;;9.90;;
68178;SDS011;69812;42.632;23.440;2023-06-26T07:17:25;10.68;;;8.63;;
68178;SDS011;69812;42.632;23.440;2023-06-26T07:19:50;10.25;;;9.15;;
68178;SDS011;69812;42.632;23.440;2023-06-26T07:24:41;8.95;;;8.07;;
68178;SDS011;69812;42.632;23.440;2023-06-26T07:27:06;9.27;;;7.68;;
68178;SDS011;69812;42.632;23.440;2023-06-26T07:29:32;9.55;;;8.43;;
68178;SDS011;69812;42.632;23.440;2023-06-26T07:34:23;9.40;;;8.40;;
68178;SDS011;69812;42.632;23.440;2023-06-26T07:39:16;10.45;;;7.82;;
68178;SDS011;69812;42.632;23.440;2023-06-26T07:41:41;10.70;;;7.68;;
68178;SDS011;69812;42.632;23.440;2023-06-26T07:44:07;11.07;;;8.63;;
68178;SDS011;69812;42.632;23.440;2023-06-26T07:48:57;9.60;;;7.90;;
68178;SDS011;69812;42.632;23.440;2023-06-26T07:51:27;10.18;;;7.60;;
68178;SDS011;69812;42.632;23.440;2023-06-26T07:53:52;8.15;;;6.95;;
68178;SDS011;69812;42.632;23.440;2023-06-26T07:56:18;8.05;;;7.25;;
68178;SDS011;69812;42.632;23.440;2023-06-26T07:58:43;9.77;;;7.05;;
68178;SDS011;69812;42.632;23.440;2023-06-26T08:03:34;7.63;;;6.90;;
68178;SDS011;69812;42.632;23.440;2023-06-26T08:05:59;10.20;;;6.80;;
68178;SDS011;69812;42.632;23.440;2023-06-26T08:08:28;8.63;;;7.18;;
68178;SDS011;69812;42.632;23.440;2023-06-26T08:13:18;7.30;;;6.17;;
68178;SDS011;69812;42.632;23.440;2023-06-26T08:15:44;8.55;;;6.93;;
68178;SDS011;69812;42.632;23.440;2023-06-26T08:18:09;7.18;;;6.03;;
68178;SDS011;69812;42.632;23.440;2023-06-26T08:23:02;6.50;;;5.82;;
68178;SDS011;69812;42.632;23.440;2023-06-26T08:25:31;8.10;;;6.30;;
68178;SDS011;69812;42.632;23.440;2023-06-26T08:27:57;6.57;;;5.68;;
68178;SDS011;69812;42.632;23.440;2023-06-26T08:30:22;9.38;;;6.85;;
68178;SDS011;69812;42.632;23.440;2023-06-26T08:32:52;6.90;;;6.20;;
68178;SDS011;69812;42.632;23.440;2023-06-26T08:35:18;6.85;;;5.95;;
68178;SDS011;69812;42.632;23.440;2023-06-26T08:37:43;7.22;;;5.72;;
68178;SDS011;69812;42.632;23.440;2023-06-26T08:42:39;7.65;;;6.30;;
68178;SDS011;69812;42.632;23.440;2023-06-26T08:47:30;6.50;;;5.80;;
68178;SDS011;69812;42.632;23.440;2023-06-26T08:56:16;7.50;;;6.50;;
68178;SDS011;69812;42.632;23.440;2023-06-26T08:58:44;8.90;;;6.10;;
68178;SDS011;69812;42.632;23.440;2023-06-26T09:01:13;8.23;;;5.95;;
68178;SDS011;69812;42.632;23.440;2023-06-26T09:03:38;9.80;;;6.63;;
68178;SDS011;69812;42.632;23.440;2023-06-26T09:06:04;9.32;;;6.22;;
68178;SDS011;69812;42.632;23.440;2023-06-26T09:08:29;8.30;;;6.20;;
68178;SDS011;69812;42.632;23.440;2023-06-26T09:10:55;8.40;;;6.95;;
68178;SDS011;69812;42.632;23.440;2023-06-26T09:13:20;9.60;;;7.03;;
68178;SDS011;69812;42.632;23.440;2023-06-26T09:15:46;8.65;;;6.22;;
68178;SDS011;69812;42.632;23.440;2023-06-26T09:18:12;8.73;;;5.90;;
68178;SDS011;69812;42.632;23.440;2023-06-26T09:23:03;6.63;;;5.00;;
68178;SDS011;69812;42.632;23.440;2023-06-26T09:25:29;8.07;;;6.75;;
68178;SDS011;69812;42.632;23.440;2023-06-26T09:27:55;8.93;;;5.93;;
68178;SDS011;69812;42.632;23.440;2023-06-26T09:30:21;9.05;;;6.07;;
68178;SDS011;69812;42.632;23.440;2023-06-26T09:32:47;7.85;;;5.20;;
68178;SDS011;69812;42.632;23.440;2023-06-26T09:35:13;8.82;;;5.80;;
68178;SDS011;69812;42.632;23.440;2023-06-26T09:37:38;9.07;;;6.22;;
68178;SDS011;69812;42.632;23.440;2023-06-26T09:40:04;7.57;;;5.53;;
68178;SDS011;69812;42.632;23.440;2023-06-26T09:42:30;7.53;;;5.90;;
68178;SDS011;69812;42.632;23.440;2023-06-26T09:44:58;9.95;;;6.90;;
68178;SDS011;69812;42.632;23.440;2023-06-26T09:47:25;7.45;;;5.03;;
68178;SDS011;69812;42.632;23.440;2023-06-26T09:49:51;7.10;;;5.90;;
68178;SDS011;69812;42.632;23.440;2023-06-26T09:52:20;10.40;;;5.82;;
68178;SDS011;69812;42.632;23.440;2023-06-26T09:54:48;8.82;;;5.32;;
68178;SDS011;69812;42.632;23.440;2023-06-26T09:57:14;7.03;;;5.05;;
68178;SDS011;69812;42.632;23.440;2023-06-26T09:59:41;5.43;;;4.55;;
68178;SDS011;69812;42.632;23.440;2023-06-26T10:02:07;8.00;;;5.25;;
68178;SDS011;69812;42.632;23.440;2023-06-26T10:04:34;7.45;;;5.03;;
68178;SDS011;69812;42.632;23.440;2023-06-26T10:07:04;7.60;;;5.35;;
68178;SDS011;69812;42.632;23.440;2023-06-26T10:09:31;8.05;;;5.05;;
68178;SDS011;69812;42.632;23.440;2023-06-26T10:12:01;8.55;;;5.07;;
68178;SDS011;69812;42.632;23.440;2023-06-26T10:14:39;8.05;;;5.30;;
68178;SDS011;69812;42.632;23.440;2023-06-26T10:17:10;6.03;;;4.80;;
68178;SDS011;69812;42.632;23.440;2023-06-26T10:19:39;8.45;;;5.43;;
68178;SDS011;69812;42.632;23.440;2023-06-26T10:22:06;7.32;;;4.63;;
68178;SDS011;69812;42.632;23.440;2023-06-26T10:24:35;6.88;;;5.40;;
68178;SDS011;69812;42.632;23.440;2023-06-26T10:27:03;7.07;;;4.68;;
68178;SDS011;69812;42.632;23.440;2023-06-26T10:29:33;6.95;;;5.25;;
68178;SDS011;69812;42.632;23.440;2023-06-26T10:32:00;7.75;;;5.60;;
68178;SDS011;69812;42.632;23.440;2023-06-26T10:34:29;8.43;;;5.75;;
68178;SDS011;69812;42.632;23.440;2023-06-26T10:37:06;7.78;;;5.78;;
68178;SDS011;69812;42.632;23.440;2023-06-26T10:40:04;7.70;;;5.10;;
68178;SDS011;69812;42.632;23.440;2023-06-26T10:42:36;7.88;;;5.32;;
68178;SDS011;69812;42.632;23.440;2023-06-26T10:45:16;8.13;;;5.47;;
68178;SDS011;69812;42.632;23.440;2023-06-26T10:47:48;8.20;;;5.50;;
68178;SDS011;69812;42.632;23.440;2023-06-26T10:52:43;10.25;;;6.80;;
68178;SDS011;69812;42.632;23.440;2023-06-26T10:55:09;8.18;;;5.93;;
68178;SDS011;69812;42.632;23.440;2023-06-26T10:57:35;9.85;;;6.40;;
68178;SDS011;69812;42.632;23.440;2023-06-26T11:00:10;11.75;;;6.47;;
68178;SDS011;69812;42.632;23.440;2023-06-26T11:02:48;11.75;;;6.30;;
68178;SDS011;69812;42.632;23.440;2023-06-26T11:05:26;10.32;;;6.00;;
68178;SDS011;69812;42.632;23.440;2023-06-26T11:08:14;8.85;;;5.53;;
68178;SDS011;69812;42.632;23.440;2023-06-26T11:10:48;9.90;;;5.50;;
68178;SDS011;69812;42.632;23.440;2023-06-26T11:13:18;10.00;;;6.13;;
68178;SDS011;69812;42.632;23.440;2023-06-26T11:15:44;8.10;;;5.60;;
68178;SDS011;69812;42.632;23.440;2023-06-26T11:18:11;11.45;;;5.57;;
68178;SDS011;69812;42.632;23.440;2023-06-26T11:20:38;9.25;;;6.30;;
68178;SDS011;69812;42.632;23.440;2023-06-26T11:23:03;9.60;;;5.72;;
68178;SDS011;69812;42.632;23.440;2023-06-26T11:25:33;9.65;;;5.55;;
68178;SDS011;69812;42.632;23.440;2023-06-26T11:28:03;7.55;;;5.55;;
68178;SDS011;69812;42.632;23.440;2023-06-26T11:30:29;7.32;;;5.47;;
68178;SDS011;69812;42.632;23.440;2023-06-26T11:33:08;13.90;;;6.25;;
68178;SDS011;69812;42.632;23.440;2023-06-26T11:35:34;8.68;;;5.85;;
68178;SDS011;69812;42.632;23.440;2023-06-26T11:38:00;7.60;;;5.50;;
68178;SDS011;69812;42.632;23.440;2023-06-26T11:40:32;9.43;;;5.70;;
68178;SDS011;69812;42.632;23.440;2023-06-26T11:42:58;6.95;;;4.93;;
68178;SDS011;69812;42.632;23.440;2023-06-26T11:45:25;9.05;;;5.30;;
68178;SDS011;69812;42.632;23.440;2023-06-26T11:47:54;6.68;;;4.32;;
68178;SDS011;69812;42.632;23.440;2023-06-26T11:50:21;7.15;;;4.95;;
68178;SDS011;69812;42.632;23.440;2023-06-26T11:52:52;7.63;;;4.32;;
68178;SDS011;69812;42.632;23.440;2023-06-26T11:55:18;7.80;;;5.00;;
68178;SDS011;69812;42.632;23.440;2023-06-26T11:58:28;7.55;;;4.35;;
68178;SDS011;69812;42.632;23.440;2023-06-26T12:00:34;6.75;;;4.70;;
68178;SDS011;69812;42.632;23.440;2023-06-26T12:03:00;7.95;;;4.82;;
68178;SDS011;69812;42.632;23.440;2023-06-26T12:05:26;6.63;;;4.93;;
68178;SDS011;69812;42.632;23.440;2023-06-26T12:07:51;5.97;;;4.55;;
68178;SDS011;69812;42.632;23.440;2023-06-26T12:10:17;6.32;;;5.00;;
68178;SDS011;69812;42.632;23.440;2023-06-26T12:12:45;6.30;;;4.90;;
68178;SDS011;69812;42.632;23.440;2023-06-26T12:15:12;6.55;;;5.30;;
68178;SDS011;69812;42.632;23.440;2023-06-26T12:17:39;13.35;;;5.38;;
68178;SDS011;69812;42.632;23.440;2023-06-26T12:20:05;7.07;;;5.22;;
68178;SDS011;69812;42.632;23.440;2023-06-26T12:22:42;9.23;;;5.60;;
68178;SDS011;69812;42.632;23.440;2023-06-26T12:27:33;7.10;;;5.00;;
68178;SDS011;69812;42.632;23.440;2023-06-26T12:30:02;7.43;;;5.00;;
68178;SDS011;69812;42.632;23.440;2023-06-26T12:32:31;6.63;;;4.35;;
68178;SDS011;69812;42.632;23.440;2023-06-26T12:34:57;6.70;;;4.75;;
68178;SDS011;69812;42.632;23.440;2023-06-26T12:37:23;6.25;;;5.10;;
68178;SDS011;69812;42.632;23.440;2023-06-26T12:39:49;7.82;;;5.00;;
68178;SDS011;69812;42.632;23.440;2023-06-26T12:42:24;6.70;;;4.65;;
68178;SDS011;69812;42.632;23.440;2023-06-26T12:44:54;7.47;;;5.43;;
68178;SDS011;69812;42.632;23.440;2023-06-26T12:47:25;6.25;;;4.55;;
68178;SDS011;69812;42.632;23.440;2023-06-26T12:49:52;6.55;;;5.15;;
68178;SDS011;69812;42.632;23.440;2023-06-26T12:52:18;7.30;;;5.22;;
68178;SDS011;69812;42.632;23.440;2023-06-26T12:54:45;7.35;;;4.78;;
68178;SDS011;69812;42.632;23.440;2023-06-26T12:57:12;9.20;;;4.72;;
68178;SDS011;69812;42.632;23.440;2023-06-26T12:59:39;6.22;;;4.10;;
68178;SDS011;69812;42.632;23.440;2023-06-26T13:02:05;6.28;;;4.60;;
68178;SDS011;69812;42.632;23.440;2023-06-26T13:04:31;9.18;;;4.25;;
68178;SDS011;69812;42.632;23.440;2023-06-26T13:06:57;5.70;;;4.03;;
68178;SDS011;69812;42.632;23.440;2023-06-26T13:09:26;5.78;;;4.10;;
68178;SDS011;69812;42.632;23.440;2023-06-26T13:11:58;6.03;;;3.83;;
68178;SDS011;69812;42.632;23.440;2023-06-26T13:14:24;6.45;;;4.75;;
68178;SDS011;69812;42.632;23.440;2023-06-26T13:16:49;8.38;;;5.10;;
68178;SDS011;69812;42.632;23.440;2023-06-26T13:19:15;7.53;;;4.93;;
68178;SDS011;69812;42.632;23.440;2023-06-26T13:21:45;7.82;;;5.47;;
68178;SDS011;69812;42.632;23.440;2023-06-26T13:24:11;8.68;;;5.35;;
68178;SDS011;69812;42.632;23.440;2023-06-26T13:26:36;7.85;;;5.32;;
68178;SDS011;69812;42.632;23.440;2023-06-26T13:29:02;7.57;;;4.90;;
68178;SDS011;69812;42.632;23.440;2023-06-26T13:31:28;6.63;;;5.05;;
68178;SDS011;69812;42.632;23.440;2023-06-26T13:33:53;6.90;;;4.93;;
68178;SDS011;69812;42.632;23.440;2023-06-26T13:36:19;6.90;;;4.82;;
68178;SDS011;69812;42.632;23.440;2023-06-26T13:38:45;7.50;;;5.32;;
68178;SDS011;69812;42.632;23.440;2023-06-26T13:41:14;9.93;;;4.95;;
68178;SDS011;69812;42.632;23.440;2023-06-26T13:43:39;6.95;;;5.35;;
68178;SDS011;69812;42.632;23.440;2023-06-26T13:46:07;5.85;;;4.45;;
68178;SDS011;69812;42.632;23.440;2023-06-26T13:48:32;7.40;;;4.75;;
68178;SDS011;69812;42.632;23.440;2023-06-26T13:50:58;7.03;;;4.93;;
68178;SDS011;69812;42.632;23.440;2023-06-26T13:53:24;6.32;;;4.75;;
68178;SDS011;69812;42.632;23.440;2023-06-26T13:55:49;8.27;;;5.25;;
68178;SDS011;69812;42.632;23.440;2023-06-26T13:58:14;6.93;;;4.97;;
68178;SDS011;69812;42.632;23.440;2023-06-26T14:00:40;7.22;;;4.55;;
68178;SDS011;69812;42.632;23.440;2023-06-26T14:03:06;8.57;;;5.38;;
68178;SDS011;69812;42.632;23.440;2023-06-26T14:05:35;6.53;;;4.70;;
68178;SDS011;69812;42.632;23.440;2023-06-26T14:08:02;7.85;;;5.15;;
68178;SDS011;69812;42.632;23.440;2023-06-26T14:10:29;7.78;;;5.25;;
68178;SDS011;69812;42.632;23.440;2023-06-26T14:12:55;7.40;;;4.93;;
68178;SDS011;69812;42.632;23.440;2023-06-26T14:15:20;7.95;;;5.13;;
68178;SDS011;69812;42.632;23.440;2023-06-26T14:17:46;6.10;;;4.78;;
68178;SDS011;69812;42.632;23.440;2023-06-26T14:20:12;6.30;;;4.75;;
68178;SDS011;69812;42.632;23.440;2023-06-26T14:22:41;6.15;;;4.78;;
68178;SDS011;69812;42.632;23.440;2023-06-26T14:25:11;6.95;;;5.15;;
68178;SDS011;69812;42.632;23.440;2023-06-26T14:27:37;8.07;;;5.20;;
68178;SDS011;69812;42.632;23.440;2023-06-26T14:30:03;7.28;;;5.30;;
68178;SDS011;69812;42.632;23.440;2023-06-26T14:32:30;7.28;;;5.47;;
68178;SDS011;69812;42.632;23.440;2023-06-26T14:34:56;9.43;;;5.85;;
68178;SDS011;69812;42.632;23.440;2023-06-26T14:37:22;6.47;;;5.03;;
68178;SDS011;69812;42.632;23.440;2023-06-26T14:39:47;7.20;;;5.47;;
68178;SDS011;69812;42.632;23.440;2023-06-26T14:42:12;8.70;;;5.47;;
68178;SDS011;69812;42.632;23.440;2023-06-26T14:44:38;11.32;;;6.10;;
68178;SDS011;69812;42.632;23.440;2023-06-26T14:47:06;11.60;;;5.45;;
68178;SDS011;69812;42.632;23.440;2023-06-26T14:49:33;7.03;;;5.47;;
68178;SDS011;69812;42.632;23.440;2023-06-26T14:52:03;8.95;;;5.35;;
68178;SDS011;69812;42.632;23.440;2023-06-26T14:54:29;8.93;;;5.38;;
68178;SDS011;69812;42.632;23.440;2023-06-26T14:56:57;7.28;;;5.28;;
68178;SDS011;69812;42.632;23.440;2023-06-26T14:59:22;8.88;;;6.05;;
68178;SDS011;69812;42.632;23.440;2023-06-26T15:01:50;8.35;;;5.55;;
68178;SDS011;69812;42.632;23.440;2023-06-26T15:04:16;8.82;;;5.82;;
68178;SDS011;69812;42.632;23.440;2023-06-26T15:06:41;8.20;;;5.38;;
68178;SDS011;69812;42.632;23.440;2023-06-26T15:09:07;10.63;;;5.70;;